Station History

Weather Underground - logo

Station Historical Data
Daily Summary for October 23, 2017 Units:  English    Metric   Both
« Previous Day
Next Day »
Daily Weekly Monthly Yearly Custom
  High: Low: Average:
Temperature: 79.0 °F 46.1 °F 61.2 °F
Dew Point: 56.2 °F 43.5 °F 50.4 °F
Humidity: 93 % 40 % 71 %
Wind Speed: 2.3 mph 0.0 mph 0.3 mph
Wind Gust: 2.3 mph - -
Wind:- - WSW
Pressure: 30.30 in 30.15 in -
Precipitation: 0.00 in    
Historical Graphs
 
 
Tabular Data for October 23, 2017
Time Temperature Dew Point Pressure Wind Wind Speed Wind Gust Humidity Rainfall Rate (Hourly)
00:02 51.9 °F 48.8 °F 30.27 in Calm     89 % 0.00 in
00:07 51.9 °F 48.8 °F 30.27 in Calm     89 % 0.00 in
00:12 51.8 °F 48.7 °F 30.27 in Calm     89 % 0.00 in
00:17 51.7 °F 48.6 °F 30.27 in Calm     89 % 0.00 in
00:22 51.6 °F 48.5 °F 30.27 in Calm     89 % 0.00 in
00:27 51.6 °F 48.5 °F 30.27 in Calm     89 % 0.00 in
00:32 51.2 °F 47.8 °F 30.27 in Calm     88 % 0.00 in
00:37 50.9 °F 47.8 °F 30.27 in Calm     89 % 0.00 in
00:42 50.9 °F 48.1 °F 30.27 in Calm     90 % 0.00 in
00:47 51.0 °F 48.2 °F 30.27 in Calm     90 % 0.00 in
00:52 51.2 °F 48.4 °F 30.27 in Calm     90 % 0.00 in
00:57 51.3 °F 48.5 °F 30.27 in Calm     90 % 0.00 in
01:02 51.4 °F 48.6 °F 30.27 in Calm     90 % 0.00 in
01:07 51.6 °F 48.5 °F 30.27 in Calm     89 % 0.00 in
01:12 51.5 °F 48.1 °F 30.27 in Calm     88 % 0.00 in
01:17 51.5 °F 47.8 °F 30.27 in Calm     87 % 0.00 in
01:22 51.5 °F 48.1 °F 30.27 in Calm     88 % 0.00 in
01:27 51.3 °F 47.9 °F 30.27 in Calm     88 % 0.00 in
01:32 50.9 °F 47.5 °F 30.27 in Calm     88 % 0.00 in
01:37 50.7 °F 47.6 °F 30.27 in Calm     89 % 0.00 in
01:42 50.5 °F 47.4 °F 30.27 in Calm     89 % 0.00 in
01:47 50.3 °F 47.2 °F 30.27 in Calm     89 % 0.00 in
01:52 50.2 °F 47.1 °F 30.27 in Calm     89 % 0.00 in
01:57 49.9 °F 46.8 °F 30.27 in Calm     89 % 0.00 in
02:02 49.4 °F 46.0 °F 30.27 in Calm     88 % 0.00 in
02:07 49.2 °F 46.1 °F 30.27 in Calm     89 % 0.00 in
02:12 49.2 °F 46.1 °F 30.27 in Calm     89 % 0.00 in
02:17 49.2 °F 46.1 °F 30.27 in Calm     89 % 0.00 in
02:22 49.2 °F 46.1 °F 30.27 in Calm     89 % 0.00 in
02:27 49.2 °F 46.4 °F 30.27 in Calm     90 % 0.00 in
02:32 49.1 °F 46.3 °F 30.27 in Calm     90 % 0.00 in
02:37 49.0 °F 46.2 °F 30.27 in Calm     90 % 0.00 in
02:42 48.9 °F 46.1 °F 30.27 in Calm     90 % 0.00 in
02:47 48.7 °F 45.9 °F 30.27 in Calm     90 % 0.00 in
02:52 48.7 °F 46.2 °F 30.26 in Calm     91 % 0.00 in
02:57 48.6 °F 46.1 °F 30.26 in Calm     91 % 0.00 in
03:02 48.5 °F 45.7 °F 30.27 in Calm     90 % 0.00 in
03:07 48.3 °F 45.5 °F 30.26 in Calm     90 % 0.00 in
03:09 48.3 °F 45.5 °F 30.26 in Calm     90 % 0.00 in
03:14 48.2 °F 45.4 °F 30.26 in Calm     90 % 0.00 in
03:19 48.0 °F 45.2 °F 30.26 in Calm     90 % 0.00 in
03:24 47.9 °F 45.4 °F 30.26 in Calm     91 % 0.00 in
03:29 47.9 °F 45.4 °F 30.26 in Calm     91 % 0.00 in
03:34 47.9 °F 45.4 °F 30.26 in Calm     91 % 0.00 in
03:39 47.8 °F 45.3 °F 30.26 in Calm     91 % 0.00 in
03:44 47.8 °F 45.6 °F 30.26 in Calm     92 % 0.00 in
03:49 47.6 °F 45.1 °F 30.26 in Calm     91 % 0.00 in
03:54 47.5 °F 45.0 °F 30.26 in Calm     91 % 0.00 in
03:59 47.5 °F 45.0 °F 30.26 in Calm     91 % 0.00 in
04:04 47.1 °F 44.3 °F 30.26 in Calm     90 % 0.00 in
04:09 46.8 °F 44.0 °F 30.26 in Calm     90 % 0.00 in
04:14 46.6 °F 43.8 °F 30.26 in Calm     90 % 0.00 in
04:19 46.6 °F 44.1 °F 30.26 in Calm     91 % 0.00 in
04:24 46.5 °F 44.0 °F 30.26 in Calm     91 % 0.00 in
04:29 46.7 °F 44.2 °F 30.26 in Calm     91 % 0.00 in
04:34 46.9 °F 44.7 °F 30.26 in Calm     92 % 0.00 in
04:39 47.2 °F 45.0 °F 30.26 in Calm     92 % 0.00 in
04:44 47.3 °F 45.1 °F 30.26 in Calm     92 % 0.00 in
04:49 47.2 °F 45.0 °F 30.26 in Calm     92 % 0.00 in
04:54 47.2 °F 45.0 °F 30.26 in Calm     92 % 0.00 in
04:59 47.1 °F 44.9 °F 30.26 in Calm     92 % 0.00 in
05:04 47.1 °F 44.9 °F 30.27 in Calm     92 % 0.00 in
05:09 47.2 °F 45.0 °F 30.27 in Calm     92 % 0.00 in
05:14 47.2 °F 45.0 °F 30.27 in Calm     92 % 0.00 in
05:19 47.1 °F 44.6 °F 30.27 in Calm     91 % 0.00 in
05:24 47.3 °F 45.1 °F 30.27 in Calm     92 % 0.00 in
05:29 47.3 °F 45.1 °F 30.27 in Calm     92 % 0.00 in
05:34 47.4 °F 45.2 °F 30.27 in Calm     92 % 0.00 in
05:39 47.4 °F 45.2 °F 30.27 in Calm     92 % 0.00 in
05:44 47.2 °F 45.0 °F 30.27 in Calm     92 % 0.00 in
05:49 47.1 °F 44.9 °F 30.27 in Calm     92 % 0.00 in
05:54 47.1 °F 44.9 °F 30.27 in Calm     92 % 0.00 in
05:56 47.1 °F 44.9 °F 30.27 in Calm     92 % 0.00 in
06:01 46.9 °F 44.7 °F 30.27 in Calm     92 % 0.00 in
06:06 46.8 °F 44.6 °F 30.27 in Calm     92 % 0.00 in
06:11 46.8 °F 44.6 °F 30.27 in Calm     92 % 0.00 in
06:16 46.8 °F 44.6 °F 30.26 in Calm     92 % 0.00 in
06:21 46.6 °F 44.1 °F 30.26 in Calm     91 % 0.00 in
06:26 46.3 °F 43.5 °F 30.27 in Calm     90 % 0.00 in
06:31 46.1 °F 43.6 °F 30.27 in Calm     91 % 0.00 in
06:36 46.1 °F 43.6 °F 30.27 in Calm     91 % 0.00 in
06:41 46.3 °F 43.8 °F 30.27 in Calm     91 % 0.00 in
06:46 46.3 °F 43.8 °F 30.27 in Calm     91 % 0.00 in
06:51 46.3 °F 43.8 °F 30.27 in Calm     91 % 0.00 in
06:56 46.5 °F 44.3 °F 30.27 in Calm     92 % 0.00 in
07:01 46.6 °F 44.4 °F 30.27 in Calm     92 % 0.00 in
07:06 46.7 °F 44.5 °F 30.27 in Calm     92 % 0.00 in
07:11 46.6 °F 44.4 °F 30.27 in Calm     92 % 0.00 in
07:16 46.6 °F 44.4 °F 30.27 in Calm     92 % 0.00 in
07:21 46.7 °F 44.5 °F 30.27 in Calm     92 % 0.00 in
07:26 46.6 °F 44.4 °F 30.28 in Calm     92 % 0.00 in
07:31 46.7 °F 44.5 °F 30.28 in Calm     92 % 0.00 in
07:36 46.7 °F 44.5 °F 30.28 in Calm     92 % 0.00 in
07:41 46.7 °F 44.5 °F 30.28 in Calm     92 % 0.00 in
07:46 47.0 °F 45.1 °F 30.28 in Calm     93 % 0.00 in
07:51 47.5 °F 45.3 °F 30.28 in Calm     92 % 0.00 in
07:56 47.8 °F 45.6 °F 30.28 in Calm     92 % 0.00 in
08:01 48.5 °F 46.0 °F 30.28 in Calm     91 % 0.00 in
08:07 49.3 °F 46.5 °F 30.28 in Calm     90 % 0.00 in
08:12 50.0 °F 46.6 °F 30.28 in Calm     88 % 0.00 in
08:17 51.0 °F 47.3 °F 30.28 in Calm     87 % 0.00 in
08:22 52.2 °F 48.1 °F 30.29 in Calm     86 % 0.00 in
08:27 53.5 °F 48.5 °F 30.29 in Calm     83 % 0.00 in
08:32 54.4 °F 49.0 °F 30.29 in Calm     82 % 0.00 in
08:37 55.3 °F 49.2 °F 30.29 in Calm     80 % 0.00 in
08:42 56.0 °F 48.9 °F 30.29 in Calm     77 % 0.00 in
08:47 56.8 °F 49.0 °F 30.29 in Calm     75 % 0.00 in
08:52 57.6 °F 49.7 °F 30.29 in Calm     75 % 0.00 in
09:02 61.2 °F 50.6 °F 30.29 in Calm     68 % 0.00 in
09:07 62.3 °F 50.8 °F 30.30 in Calm     66 % 0.00 in
09:12 63.3 °F 50.9 °F 30.30 in Calm     64 % 0.00 in
09:17 63.7 °F 50.4 °F 30.30 in Calm     62 % 0.00 in
09:22 64.0 °F 50.3 °F 30.30 in Calm     61 % 0.00 in
09:27 64.3 °F 51.0 °F 30.29 in SE 1.0 mph   62 % 0.00 in
09:37 64.5 °F 50.7 °F 30.29 in Calm     61 % 0.00 in
09:42 64.6 °F 50.4 °F 30.29 in ESE 1.2 mph   60 % 0.00 in
09:47 65.1 °F 50.9 °F 30.29 in NNW 1.2 mph 1.2 mph 60 % 0.00 in
09:52 65.3 °F 50.6 °F 30.29 in ESE 1.2 mph 1.2 mph 59 % 0.00 in
09:57 65.6 °F 50.9 °F 30.29 in Calm     59 % 0.00 in
10:02 65.8 °F 51.1 °F 30.29 in SE 1.2 mph   59 % 0.00 in
10:07 66.0 °F 50.8 °F 30.29 in WNW 1.2 mph   58 % 0.00 in
10:12 66.4 °F 51.6 °F 30.29 in Calm     59 % 0.00 in
10:17 67.2 °F 51.9 °F 30.29 in SSE 1.2 mph 1.2 mph 58 % 0.00 in
10:22 67.5 °F 51.2 °F 30.28 in NW 1.2 mph   56 % 0.00 in
10:27 67.5 °F 51.7 °F 30.28 in SW 1.2 mph   57 % 0.00 in
10:32 67.6 °F 50.4 °F 30.28 in SSW 1.2 mph   54 % 0.00 in
10:37 67.9 °F 51.1 °F 30.28 in NW 1.2 mph 1.2 mph 55 % 0.00 in
10:42 68.2 °F 50.4 °F 30.28 in WNW 1.2 mph   53 % 0.00 in
10:47 68.2 °F 51.4 °F 30.27 in NW 1.2 mph   55 % 0.00 in
10:52 68.5 °F 51.2 °F 30.27 in Calm     54 % 0.00 in
10:57 68.6 °F 50.8 °F 30.27 in WNW 1.2 mph 1.2 mph 53 % 0.00 in
11:02 68.5 °F 51.2 °F 30.27 in Calm     54 % 0.00 in
11:07 68.9 °F 51.1 °F 30.27 in Calm     53 % 0.00 in
11:12 69.2 °F 51.3 °F 30.27 in Calm   0.4 mph 53 % 0.00 in
11:17 69.4 °F 51.0 °F 30.27 in Calm     52 % 0.00 in
11:22 69.6 °F 50.7 °F 30.27 in West 1.2 mph   51 % 0.00 in
11:27 70.2 °F 52.3 °F 30.27 in NW 1.2 mph   53 % 0.00 in
11:32 70.7 °F 51.7 °F 30.27 in Calm     51 % 0.00 in
11:37 71.0 °F 52.0 °F 30.26 in Calm     51 % 0.00 in
11:42 71.3 °F 52.2 °F 30.26 in Calm   0.2 mph 51 % 0.00 in
11:47 71.4 °F 51.8 °F 30.26 in West 2.3 mph 2.3 mph 50 % 0.00 in
11:52 71.6 °F 52.0 °F 30.26 in Calm   0.1 mph 50 % 0.00 in
11:57 71.8 °F 52.2 °F 30.26 in WSW 1.2 mph 1.2 mph 50 % 0.00 in
12:02 72.1 °F 51.3 °F 30.25 in NW 1.2 mph 1.2 mph 48 % 0.00 in
12:07 72.2 °F 52.0 °F 30.25 in Calm     49 % 0.00 in
12:12 72.7 °F 52.4 °F 30.25 in Calm     49 % 0.00 in
12:17 73.1 °F 52.2 °F 30.25 in West 2.0 mph 2.0 mph 48 % 0.00 in
12:22 73.2 °F 51.2 °F 30.24 in WNW 1.2 mph   46 % 0.00 in
12:27 73.9 °F 53.5 °F 30.24 in West 2.0 mph 2.0 mph 49 % 0.00 in
12:32 74.0 °F 51.9 °F 30.24 in NW 1.2 mph 1.2 mph 46 % 0.00 in
12:37 74.2 °F 52.7 °F 30.23 in SE 1.2 mph   47 % 0.00 in
12:42 74.7 °F 53.1 °F 30.23 in North 1.2 mph 1.2 mph 47 % 0.00 in
12:48 74.7 °F 52.5 °F 30.23 in West 2.3 mph 2.3 mph 46 % 0.00 in
12:53 74.9 °F 53.3 °F 30.23 in West 1.2 mph 1.2 mph 47 % 0.00 in
12:58 75.0 °F 52.2 °F 30.23 in Calm     45 % 0.00 in
13:03 75.2 °F 52.4 °F 30.22 in NE 1.2 mph 1.2 mph 45 % 0.00 in
13:08 75.2 °F 52.4 °F 30.22 in NW 1.2 mph 1.2 mph 45 % 0.00 in
13:13 75.6 °F 53.4 °F 30.22 in Calm     46 % 0.00 in
13:18 75.9 °F 52.4 °F 30.22 in NW 2.3 mph 2.3 mph 44 % 0.00 in
13:19 75.8 °F 52.9 °F 30.21 in NNE 1.2 mph   45 % 0.00 in
13:24 76.1 °F 52.6 °F 30.21 in WNW 1.2 mph 1.2 mph 44 % 0.00 in
13:29 75.7 °F 52.2 °F 30.21 in Calm     44 % 0.00 in
13:34 76.2 °F 52.7 °F 30.21 in NW 2.3 mph 2.3 mph 44 % 0.00 in
13:39 76.0 °F 51.9 °F 30.20 in WNW 1.2 mph 1.2 mph 43 % 0.00 in
13:44 76.3 °F 52.8 °F 30.20 in Calm     44 % 0.00 in
13:49 76.5 °F 52.3 °F 30.20 in NW 2.3 mph 2.3 mph 43 % 0.00 in
13:54 76.8 °F 53.2 °F 30.20 in WNW 1.0 mph 1.0 mph 44 % 0.00 in
13:59 76.8 °F 52.6 °F 30.19 in NW 1.2 mph 1.2 mph 43 % 0.00 in
14:04 77.1 °F 53.5 °F 30.20 in Calm     44 % 0.00 in
14:09 77.2 °F 52.3 °F 30.19 in WNW 1.2 mph 1.2 mph 42 % 0.00 in
14:14 77.6 °F 53.3 °F 30.19 in Calm     43 % 0.00 in
14:19 77.8 °F 52.9 °F 30.19 in NW 2.3 mph 2.3 mph 42 % 0.00 in
14:25 78.1 °F 53.8 °F 30.19 in Calm     43 % 0.00 in
14:30 78.3 °F 53.3 °F 30.19 in NW 2.3 mph 2.3 mph 42 % 0.00 in
14:35 77.9 °F 52.3 °F 30.19 in West 1.0 mph 1.0 mph 41 % 0.00 in
14:40 78.3 °F 52.7 °F 30.18 in Calm     41 % 0.00 in
14:45 78.6 °F 52.9 °F 30.18 in Calm     41 % 0.00 in
14:50 79.0 °F 52.6 °F 30.18 in NW 1.2 mph 1.2 mph 40 % 0.00 in
14:55 78.6 °F 52.3 °F 30.18 in NNE 2.3 mph 2.3 mph 40 % 0.00 in
15:00 78.6 °F 52.9 °F 30.18 in NW 1.2 mph 1.2 mph 41 % 0.00 in
15:05 78.7 °F 52.3 °F 30.18 in West 1.2 mph   40 % 0.00 in
15:10 78.6 °F 52.9 °F 30.18 in Calm     41 % 0.00 in
15:15 78.4 °F 53.4 °F 30.17 in NW 1.2 mph 1.2 mph 42 % 0.00 in
15:20 78.4 °F 52.1 °F 30.17 in WNW 1.2 mph   40 % 0.00 in
15:25 78.6 °F 52.9 °F 30.17 in WNW 2.3 mph 2.3 mph 41 % 0.00 in
15:30 78.5 °F 52.2 °F 30.17 in WNW 1.2 mph   40 % 0.00 in
15:35 78.7 °F 52.3 °F 30.17 in Calm     40 % 0.00 in
15:40 78.7 °F 53.7 °F 30.17 in WNW 1.2 mph 1.2 mph 42 % 0.00 in
15:45 78.6 °F 52.9 °F 30.17 in NNW 1.2 mph 1.2 mph 41 % 0.00 in
15:50 78.6 °F 52.9 °F 30.17 in NW 1.2 mph 1.2 mph 41 % 0.00 in
15:55 78.3 °F 52.0 °F 30.17 in Calm     40 % 0.00 in
16:00 78.2 °F 52.6 °F 30.16 in NW 1.2 mph   41 % 0.00 in
16:05 78.2 °F 51.9 °F 30.16 in Calm     40 % 0.00 in
16:10 78.1 °F 52.5 °F 30.16 in Calm     41 % 0.00 in
16:15 78.0 °F 53.7 °F 30.16 in West 1.2 mph 1.2 mph 43 % 0.00 in
16:20 78.0 °F 53.7 °F 30.16 in Calm     43 % 0.00 in
16:30 77.8 °F 52.2 °F 30.16 in Calm     41 % 0.00 in
16:35 77.7 °F 52.8 °F 30.16 in WSW 1.2 mph 1.2 mph 42 % 0.00 in
16:40 77.6 °F 52.7 °F 30.16 in WNW 1.2 mph   42 % 0.00 in
16:45 77.5 °F 53.2 °F 30.16 in Calm     43 % 0.00 in
16:50 77.4 °F 52.5 °F 30.16 in Calm     42 % 0.00 in
16:55 77.3 °F 53.1 °F 30.16 in Calm     43 % 0.00 in
17:00 77.1 °F 53.5 °F 30.16 in Calm     44 % 0.00 in
17:05 77.0 °F 52.8 °F 30.16 in West 1.2 mph   43 % 0.00 in
17:10 76.8 °F 52.6 °F 30.16 in Calm     43 % 0.00 in
17:15 76.6 °F 53.1 °F 30.16 in Calm     44 % 0.00 in
17:20 76.4 °F 53.5 °F 30.16 in Calm     45 % 0.00 in
17:25 76.2 °F 53.9 °F 30.16 in Calm     46 % 0.00 in
17:30 75.9 °F 53.0 °F 30.15 in Calm     45 % 0.00 in
17:35 75.7 °F 54.0 °F 30.15 in Calm     47 % 0.00 in
17:40 75.3 °F 53.7 °F 30.15 in Calm     47 % 0.00 in
17:45 74.8 °F 54.9 °F 30.16 in Calm     50 % 0.00 in
17:50 74.2 °F 54.9 °F 30.16 in Calm     51 % 0.00 in
17:55 73.4 °F 55.2 °F 30.16 in Calm     53 % 0.00 in
18:00 72.6 °F 56.0 °F 30.16 in Calm     56 % 0.00 in
18:05 71.7 °F 56.1 °F 30.16 in Calm     58 % 0.00 in
18:10 70.8 °F 56.2 °F 30.16 in Calm     60 % 0.00 in
18:15 70.1 °F 56.0 °F 30.16 in Calm     61 % 0.00 in
18:20 69.7 °F 55.6 °F 30.16 in Calm     61 % 0.00 in
18:25 69.3 °F 55.3 °F 30.16 in Calm     61 % 0.00 in
18:30 68.8 °F 56.1 °F 30.16 in Calm     64 % 0.00 in
18:35 68.2 °F 56.0 °F 30.16 in Calm     65 % 0.00 in
18:40 67.5 °F 55.7 °F 30.16 in Calm     66 % 0.00 in
18:45 66.9 °F 56.0 °F 30.16 in Calm     68 % 0.00 in
18:50 66.4 °F 55.5 °F 30.16 in Calm     68 % 0.00 in
18:55 66.2 °F 55.3 °F 30.16 in Calm     68 % 0.00 in
19:00 66.0 °F 55.5 °F 30.17 in Calm     69 % 0.00 in
19:05 65.7 °F 56.0 °F 30.17 in Calm     71 % 0.00 in
19:11 65.4 °F 55.7 °F 30.17 in Calm     71 % 0.00 in
19:16 65.2 °F 55.6 °F 30.17 in Calm     71 % 0.00 in
19:21 65.4 °F 55.7 °F 30.17 in Calm     71 % 0.00 in
19:26 65.2 °F 55.9 °F 30.17 in Calm     72 % 0.00 in
19:31 64.9 °F 56.0 °F 30.17 in Calm     73 % 0.00 in
19:32 64.8 °F 55.6 °F 30.17 in Calm     72 % 0.00 in
19:37 64.5 °F 55.7 °F 30.17 in Calm     73 % 0.00 in
19:42 64.2 °F 55.4 °F 30.17 in Calm     73 % 0.00 in
19:43 64.2 °F 55.4 °F 30.17 in Calm     73 % 0.00 in
19:48 63.9 °F 55.4 °F 30.17 in Calm     74 % 0.00 in
19:53 63.7 °F 55.3 °F 30.17 in Calm     74 % 0.00 in
19:58 63.5 °F 55.8 °F 30.17 in Calm     76 % 0.00 in
20:08 63.1 °F 55.0 °F 30.18 in Calm     75 % 0.00 in
20:13 62.9 °F 55.2 °F 30.18 in Calm     76 % 0.00 in
20:18 62.9 °F 54.9 °F 30.18 in Calm     75 % 0.00 in
20:21 62.8 °F 54.8 °F 30.18 in Calm     75 % 0.00 in
20:26 62.6 °F 54.6 °F 30.18 in Calm     75 % 0.00 in
20:31 62.4 °F 54.7 °F 30.18 in Calm     76 % 0.00 in
20:36 62.1 °F 54.8 °F 30.18 in Calm     77 % 0.00 in
20:41 61.8 °F 55.2 °F 30.18 in Calm     79 % 0.00 in
20:46 61.4 °F 54.8 °F 30.18 in Calm     79 % 0.00 in
20:51 61.1 °F 54.9 °F 30.18 in Calm     80 % 0.00 in
20:56 60.9 °F 54.7 °F 30.18 in Calm     80 % 0.00 in
21:01 60.9 °F 54.3 °F 30.18 in Calm     79 % 0.00 in
21:06 60.6 °F 54.4 °F 30.18 in Calm     80 % 0.00 in
21:11 60.1 °F 53.9 °F 30.19 in Calm     80 % 0.00 in
21:16 59.8 °F 53.6 °F 30.18 in Calm     80 % 0.00 in
21:26 59.2 °F 53.4 °F 30.19 in Calm     81 % 0.00 in
21:31 59.1 °F 53.6 °F 30.19 in Calm     82 % 0.00 in
21:36 58.8 °F 53.3 °F 30.19 in Calm     82 % 0.00 in
21:41 58.6 °F 53.5 °F 30.19 in Calm     83 % 0.00 in
21:46 58.4 °F 53.3 °F 30.19 in Calm     83 % 0.00 in
21:51 58.3 °F 53.5 °F 30.19 in Calm     84 % 0.00 in
21:56 58.2 °F 53.4 °F 30.19 in Calm     84 % 0.00 in
22:01 58.2 °F 53.4 °F 30.19 in Calm     84 % 0.00 in
22:06 58.2 °F 53.4 °F 30.19 in Calm     84 % 0.00 in
22:11 58.2 °F 53.7 °F 30.19 in Calm     85 % 0.00 in
22:16 58.2 °F 53.1 °F 30.19 in Calm     83 % 0.00 in
22:21 58.2 °F 53.4 °F 30.19 in Calm     84 % 0.00 in
22:26 58.2 °F 53.4 °F 30.19 in Calm     84 % 0.00 in
22:31 58.1 °F 53.6 °F 30.19 in Calm     85 % 0.00 in
22:36 58.0 °F 53.5 °F 30.19 in Calm     85 % 0.00 in
22:41 57.9 °F 53.4 °F 30.19 in Calm     85 % 0.00 in
22:46 57.7 °F 53.2 °F 30.19 in Calm     85 % 0.00 in
22:51 57.6 °F 53.4 °F 30.19 in Calm     86 % 0.00 in
22:56 57.7 °F 53.5 °F 30.19 in Calm     86 % 0.00 in
23:02 57.8 °F 53.3 °F 30.19 in Calm     85 % 0.00 in
23:07 57.4 °F 52.6 °F 30.19 in Calm     84 % 0.00 in
23:12 57.0 °F 52.2 °F 30.19 in Calm     84 % 0.00 in
23:17 56.7 °F 52.2 °F 30.19 in Calm     85 % 0.00 in
23:22 56.4 °F 52.3 °F 30.19 in Calm     86 % 0.00 in
23:27 56.1 °F 51.7 °F 30.19 in Calm     85 % 0.00 in
23:32 55.5 °F 51.4 °F 30.19 in Calm     86 % 0.00 in
23:37 55.1 °F 51.0 °F 30.19 in Calm     86 % 0.00 in
23:42 54.9 °F 50.8 °F 30.19 in Calm     86 % 0.00 in
23:47 54.9 °F 50.8 °F 30.18 in Calm     86 % 0.00 in
23:52 54.8 °F 50.7 °F 30.19 in Calm     86 % 0.00 in
Park Place, Exeter, Tulare County, California, USA
Compliments of Weather Underground - 2.75 mb